CheckWX is a tool to help pilots better visualize weather data.  It is not intended as a substitute for an official pre-flight weather briefing.

17:51:24 UTC

CYWH METAR
Victoria Harbour Seaplane Base
Victoria, Canada
Current

51 mins ago

CYWH 141700Z 29003KT 15SM FEW005 FEW012 BKN030 BKN050 BKN090 05/04 A3001 RMK SF1SC1SC3SC1AC1 SLP165
Observed
Dec-14 @ 17:00 UTC
Wind
  • 290° at 3 KTS
Visibility
15 SM
Flight Rules
MVFR
Cloud Levels
  • Few at 500' AGL
  • Few at 1,200' AGL
  • Broken at 3,000' AGL
  • Broken at 5,000' AGL
Temperature
C / 41°F
Dewpoint
C / 39°F
Humidity
93%
Altimeter
30.01" Hg
Pressure
1016.22 hPa
Previous

2 hours ago

CYWH 141614Z 00000KT 15SM FEW005 SCT015 BKN050 05/04 A3000 RMK SF1SC2SC3 SLP162
Observed
Dec-14 @ 16:14 UTC
Visibility
15 SM
Flight Rules
VFR
Cloud Levels
  • Few at 500' AGL
  • Scattered at 1,500' AGL
  • Broken at 5,000' AGL
Temperature
C / 41°F
Dewpoint
C / 39°F
Humidity
93%
Altimeter
30" Hg
Pressure
1015.92 hPa
Previous

2 hours ago

CYWH 141600Z VRB02KT 15SM VCSH FEW005 SCT015 BKN045 05/04 A3000 RMK SF2SC2SC2 OCNL -SHRA CVCTV CLD EMBD SLP162
Observed
Dec-14 @ 16:00 UTC
Wind
  • Variable at 2 KTS
Visibility
15 SM
Flight Rules
VFR
Cloud Levels
  • Few at 500' AGL
  • Scattered at 1,500' AGL
  • Broken at 4,500' AGL
Temperature
C / 41°F
Dewpoint
C / 39°F
Humidity
93%
Altimeter
30" Hg
Pressure
1015.92 hPa